Delta Pride — DSNG6 — position and weather

sailwx.info

Track history (hours):
 
Tides and Currents Weather Stations Pressure Air Temp Water Temp Dewpoint Dewpoint Depression Visibility Wind Speed Wind Dir Waves Ship Positions

Delta Pride

Last reported at 2014-Dec-22 09:33 UTC. Time now 2014-Dec-23 05:11 UTC.
Position N 38°14' W 123°32'.

Length 186 m; draft 7.2 m.

Type: Cargo ship. MMSI: 441339000.

Date/timePositionNaut miles runAvg speedWind from/ knotsBaromVisibWave heightAir tempDewpointWater temp
2014-Dec-22 09:33N 38°14' W 123°32'1010.5
2014-Dec-22 08:33N 38°09' W 123°20'1110.5
2014-Dec-22 07:33N 38°01' W 123°12'1110.4
2014-Dec-22 06:32N 37°55' W 123°01'1110.9
2014-Dec-22 05:33N 37°50' W 122°48'8 7.9
2014-Dec-22 04:33N 37°45' W 122°41'9 9.1
2014-Dec-22 03:34N 37°49' W 122°30'7 6.5
2014-Dec-22 02:33N 37°54' W 122°27'1211.9
2014-Dec-22 01:33N 38°04' W 122°17'11 9.3
2014-Dec-22 00:21N 38°04' W 122°03'9 0.2
2014-Dec-20 11:19N 38°02' W 121°52'0 0.0
2014-Dec-19 06:10N 38°02' W 121°52'4 5.9
2014-Dec-19 05:32N 38°03' W 121°56'9 9.6
2014-Dec-19 04:33N 38°02' W 122°08'9 9.4
2014-Dec-19 03:33N 38°03' W 122°20'1010.4
2014-Dec-19 02:33N 37°54' W 122°26'9 8.9
2014-Dec-19 01:34N 37°47' W 122°34'1010.0
2014-Dec-19 00:34N 37°42' W 122°45'9 9.3
2014-Dec-18 23:34N 37°37' W 122°54'10 9.7
2014-Dec-18 22:33N 37°32' W 123°05'9 8.5
2014-Dec-18 21:32N 37°32' W 123°16'20 9.7
2014-Dec-18 19:30N 37°39' W 123°39'1111.9
2014-Dec-18 18:34N 37°47' W 123°50'1312.3
2014-Dec-18 17:31N 37°55' W 124°01'2512.2
2014-Dec-18 15:28N 38°13' W 124°24'  
Track history (hours):
 
Tides and Currents Weather Stations Pressure Air Temp Water Temp Dewpoint Dewpoint Depression Visibility Wind Speed Wind Dir Waves Ship Positions

Delta Pride

Last reported at 2014-Dec-22 09:33 UTC. Time now 2014-Dec-23 05:11 UTC.
Position N 38°14' W 123°32'.

Length 186 m; draft 7.2 m.

Type: Cargo ship. MMSI: 441339000.

Date/timePositionNaut miles runAvg speedWind from/ knotsBaromVisibWave heightAir tempDewpointWater temp
2014-Dec-22 09:33N 38°14' W 123°32'1010.5
2014-Dec-22 08:33N 38°09' W 123°20'1110.5
2014-Dec-22 07:33N 38°01' W 123°12'1110.4
2014-Dec-22 06:32N 37°55' W 123°01'1110.9
2014-Dec-22 05:33N 37°50' W 122°48'8 7.9
2014-Dec-22 04:33N 37°45' W 122°41'9 9.1
2014-Dec-22 03:34N 37°49' W 122°30'7 6.5
2014-Dec-22 02:33N 37°54' W 122°27'1211.9
2014-Dec-22 01:33N 38°04' W 122°17'11 9.3
2014-Dec-22 00:21N 38°04' W 122°03'9 0.2
2014-Dec-20 11:19N 38°02' W 121°52'0 0.0
2014-Dec-19 06:10N 38°02' W 121°52'4 5.9
2014-Dec-19 05:32N 38°03' W 121°56'9 9.6
2014-Dec-19 04:33N 38°02' W 122°08'9 9.4
2014-Dec-19 03:33N 38°03' W 122°20'1010.4
2014-Dec-19 02:33N 37°54' W 122°26'9 8.9
2014-Dec-19 01:34N 37°47' W 122°34'1010.0
2014-Dec-19 00:34N 37°42' W 122°45'9 9.3
2014-Dec-18 23:34N 37°37' W 122°54'10 9.7
2014-Dec-18 22:33N 37°32' W 123°05'9 8.5
2014-Dec-18 21:32N 37°32' W 123°16'20 9.7
2014-Dec-18 19:30N 37°39' W 123°39'1111.9
2014-Dec-18 18:34N 37°47' W 123°50'1312.3
2014-Dec-18 17:31N 37°55' W 124°01'2512.2
2014-Dec-18 15:28N 38°13' W 124°24'  

Dump ship's entire track history